createdAt,value
2023-11-24T00:01:10.235Z,82.68
2023-11-24T00:06:14.245Z,82.97
2023-11-24T00:11:16.502Z,83.31
2023-11-24T00:16:18.720Z,83.73
2023-11-24T00:21:21.255Z,84.35
2023-11-24T00:26:23.247Z,84.79
2023-11-24T00:31:32.556Z,85.13
2023-11-24T00:36:35.453Z,85.44
2023-11-24T00:41:37.458Z,85.76
2023-11-24T00:46:39.479Z,85.77
2023-11-24T00:51:41.504Z,85.89
2023-11-24T00:56:43.523Z,86.26
2023-11-24T01:01:45.592Z,86.47
2023-11-24T01:06:47.569Z,86.73
2023-11-24T01:11:50.144Z,87.42
2023-11-24T01:16:52.211Z,87.39
2023-11-24T01:24:49.026Z,85.40
2023-11-24T01:29:54.403Z,87.09
2023-11-24T01:40:01.946Z,91.46
2023-11-24T01:45:10.796Z,92.13
2023-11-24T01:50:13.042Z,92.30
2023-11-24T01:55:17.395Z,92.21
2023-11-24T02:00:20.169Z,92.27
2023-11-24T02:05:23.047Z,92.35
2023-11-24T02:10:25.229Z,92.26
2023-11-24T02:15:27.443Z,92.00
2023-11-24T02:20:34.510Z,91.65
2023-11-24T02:25:36.600Z,91.53
2023-11-24T02:30:38.836Z,91.46
2023-11-24T02:35:43.723Z,91.33
2023-11-24T02:40:45.811Z,91.30
2023-11-24T02:45:48.039Z,91.08
2023-11-24T02:50:50.323Z,90.68
2023-11-24T02:55:52.568Z,90.25
2023-11-24T03:00:54.879Z,89.98
2023-11-24T03:05:57.244Z,89.81
2023-11-24T03:10:59.849Z,89.68
2023-11-24T03:16:07.536Z,89.59
2023-11-24T03:21:09.494Z,89.56
2023-11-24T03:26:12.127Z,89.41
2023-11-24T03:31:14.215Z,89.27
2023-11-24T03:36:17.636Z,89.14
2023-11-24T03:41:19.599Z,88.95
2023-11-24T03:46:22.254Z,88.48
2023-11-24T03:51:24.333Z,87.79
2023-11-24T03:56:26.881Z,87.31
2023-11-24T04:01:29.357Z,87.02
2023-11-24T04:06:31.887Z,86.81
2023-11-24T04:11:34.261Z,86.42
2023-11-24T04:16:37.869Z,86.33
2023-11-24T04:21:42.227Z,86.29
2023-11-24T04:26:44.763Z,86.13
2023-11-24T04:31:46.871Z,85.92
2023-11-24T04:36:49.306Z,85.91
2023-11-24T04:41:51.342Z,86.05
2023-11-24T04:46:53.719Z,86.15
2023-11-24T04:57:19.709Z,85.32
2023-11-24T05:07:19.270Z,87.92
2023-11-24T05:12:21.277Z,88.65
2023-11-24T05:17:23.274Z,89.19
2023-11-24T05:22:25.413Z,89.86
2023-11-24T05:27:27.504Z,89.99
2023-11-24T05:32:29.486Z,90.20
2023-11-24T05:37:35.585Z,90.25
2023-11-24T05:42:42.123Z,90.41
2023-11-24T05:47:44.149Z,90.24
2023-11-24T05:52:46.174Z,89.58
2023-11-24T05:57:51.835Z,89.17
2023-11-24T06:07:59.456Z,88.91
2023-11-24T06:28:16.529Z,88.99
2023-11-24T06:38:27.057Z,89.40
2023-11-24T06:43:29.759Z,89.57
2023-11-24T06:53:55.614Z,89.71
2023-11-24T06:58:57.721Z,89.48
2023-11-24T07:04:04.434Z,89.34
2023-11-24T07:09:07.551Z,89.46
2023-11-24T07:19:19.240Z,89.36
2023-11-24T07:24:21.451Z,89.31
2023-11-24T07:50:52.762Z,88.40
2023-11-24T08:39:09.448Z,84.46
2023-11-24T08:44:12.748Z,83.83
2023-11-24T08:49:14.141Z,83.40
2023-11-24T08:54:15.527Z,82.73
2023-11-24T08:59:16.945Z,82.52
2023-11-24T09:04:22.795Z,82.57
2023-11-24T09:09:24.439Z,81.87
2023-11-24T09:14:25.717Z,81.86
2023-11-24T09:19:27.103Z,81.71
2023-11-24T09:24:28.635Z,81.75
2023-11-24T09:29:30.265Z,81.88
2023-11-24T09:34:32.130Z,81.91
2023-11-24T09:39:33.491Z,80.59
2023-11-24T09:44:36.487Z,79.71
2023-11-24T09:49:40.864Z,79.19
2023-11-24T09:54:43.237Z,79.06
2023-11-24T09:59:44.571Z,78.70
2023-11-24T10:04:45.843Z,78.69
2023-11-24T10:09:51.260Z,76.84
2023-11-24T10:14:54.844Z,76.71
2023-11-24T10:19:56.058Z,75.64
2023-11-24T10:24:59.220Z,75.13
2023-11-24T10:30:00.440Z,75.51
2023-11-24T10:35:01.864Z,76.22
2023-11-24T10:40:09.722Z,76.02
2023-11-24T10:45:12.134Z,75.54
2023-11-24T10:50:16.816Z,75.07
2023-11-24T10:55:18.276Z,71.98
2023-11-24T11:00:21.370Z,70.26
2023-11-24T11:05:28.578Z,70.21
2023-11-24T11:10:36.786Z,69.33
2023-11-24T11:15:41.378Z,67.75
2023-11-24T11:20:45.261Z,67.41
2023-11-24T11:25:51.273Z,67.10
2023-11-24T11:31:00.144Z,66.70
2023-11-24T11:36:05.929Z,67.03
2023-11-24T11:41:07.300Z,65.66
2023-11-24T11:46:10.583Z,64.72
2023-11-24T11:51:17.248Z,64.57
2023-11-24T11:56:21.522Z,65.28
2023-11-24T12:01:23.080Z,66.02
2023-11-24T12:06:25.281Z,66.87
2023-11-24T12:11:27.388Z,67.45
2023-11-24T12:16:33.097Z,66.81
2023-11-24T12:21:38.764Z,66.34
2023-11-24T12:26:40.256Z,66.00
2023-11-24T12:31:42.940Z,64.76
2023-11-24T12:36:45.328Z,64.06
2023-11-24T12:41:47.284Z,63.61
2023-11-24T12:46:49.209Z,64.42
2023-11-24T12:51:50.729Z,65.33
2023-11-24T12:56:52.670Z,65.29
2023-11-24T13:01:54.626Z,64.70
2023-11-24T13:06:56.122Z,65.15
2023-11-24T13:12:00.400Z,65.25
2023-11-24T13:17:05.293Z,64.87
2023-11-24T13:22:09.878Z,64.79
2023-11-24T13:27:11.271Z,65.93
2023-11-24T13:32:12.632Z,66.35
2023-11-24T13:37:14.045Z,67.32
2023-11-24T13:42:17.037Z,67.76
2023-11-24T13:47:18.288Z,68.22
2023-11-24T13:52:19.676Z,68.38
2023-11-24T13:57:20.944Z,68.16
2023-11-24T14:02:22.569Z,67.63
2023-11-24T14:07:25.452Z,67.46
2023-11-24T14:12:27.124Z,68.11
2023-11-24T14:17:28.391Z,68.54
2023-11-24T14:22:30.018Z,68.80
2023-11-24T14:27:31.184Z,68.57
2023-11-24T14:32:33.147Z,68.60
2023-11-24T14:37:34.459Z,69.37
2023-11-24T14:42:35.996Z,69.27
2023-11-24T14:47:37.436Z,69.17
2023-11-24T14:52:38.754Z,69.50
2023-11-24T14:57:40.138Z,69.31
2023-11-24T15:07:47.518Z,70.50
2023-11-24T15:12:49.320Z,71.40
2023-11-24T15:22:58.811Z,74.79
2023-11-24T15:28:02.945Z,75.61
2023-11-24T15:33:04.405Z,75.83
2023-11-24T15:38:05.689Z,76.51
2023-11-24T15:43:07.028Z,77.23
2023-11-24T15:48:09.039Z,77.65
2023-11-24T15:53:13.530Z,77.29
2023-11-24T15:58:15.470Z,77.58
2023-11-24T16:03:18.141Z,77.57
2023-11-24T16:08:21.510Z,77.30
2023-11-24T16:13:26.133Z,77.05
2023-11-24T16:18:35.050Z,76.71
2023-11-24T16:23:33.452Z,76.05
2023-11-24T16:28:34.768Z,75.74
2023-11-24T16:33:38.064Z,75.69
2023-11-24T16:38:40.267Z,75.76
2023-11-24T16:43:41.910Z,75.83
2023-11-24T16:48:46.689Z,75.88
2023-11-24T16:53:48.242Z,76.12
2023-11-24T16:58:49.572Z,76.18
2023-11-24T17:03:50.979Z,76.38
2023-11-24T17:08:52.863Z,76.41
2023-11-24T17:13:54.862Z,76.17
2023-11-24T17:18:57.422Z,76.16
2023-11-24T17:23:58.964Z,76.03
2023-11-24T17:29:02.624Z,76.07
2023-11-24T17:34:04.093Z,75.97
2023-11-24T17:39:07.454Z,75.98
2023-11-24T17:44:12.758Z,75.79
2023-11-24T17:49:17.702Z,75.83
2023-11-24T17:54:21.731Z,75.87
2023-11-24T17:59:23.742Z,75.96
2023-11-24T18:04:25.207Z,75.95
2023-11-24T18:09:26.682Z,75.91
2023-11-24T18:14:28.028Z,76.01
2023-11-24T18:19:29.379Z,76.25
2023-11-24T18:24:30.706Z,76.09
2023-11-24T18:29:32.020Z,75.99
2023-11-24T18:39:37.561Z,75.60
2023-11-24T18:44:39.320Z,75.44
2023-11-24T18:49:46.083Z,75.29
2023-11-24T18:54:49.306Z,75.05
2023-11-24T18:59:51.390Z,74.77
2023-11-24T19:04:55.967Z,74.57
2023-11-24T19:15:08.819Z,74.51
2023-11-24T19:20:13.136Z,74.40
2023-11-24T19:25:15.973Z,74.25
2023-11-24T19:30:17.470Z,74.07
2023-11-24T19:35:19.154Z,74.08
2023-11-24T19:40:20.681Z,74.23
2023-11-24T19:45:22.499Z,74.51
2023-11-24T19:50:24.880Z,74.85
2023-11-24T19:55:26.337Z,75.29
2023-11-24T20:00:27.927Z,75.85
2023-11-24T20:05:31.134Z,75.96
2023-11-24T20:10:34.960Z,76.14
2023-11-24T20:15:36.432Z,76.27
2023-11-24T20:20:41.684Z,76.06
2023-11-24T20:25:43.152Z,75.87
2023-11-24T20:30:45.335Z,75.92
2023-11-24T20:35:46.910Z,75.92
2023-11-24T20:40:52.263Z,75.90
2023-11-24T20:45:54.274Z,75.88
2023-11-24T20:50:57.413Z,75.79
2023-11-24T20:56:00.043Z,75.80
2023-11-24T21:01:01.716Z,76.21
2023-11-24T21:06:03.902Z,77.03
2023-11-24T21:11:05.371Z,77.41
2023-11-24T21:16:07.696Z,78.05
2023-11-24T21:21:09.840Z,78.65
2023-11-24T21:26:11.549Z,79.04
2023-11-24T21:31:13.852Z,79.27
2023-11-24T21:36:19.876Z,79.65
2023-11-24T21:41:21.891Z,80.01
2023-11-24T21:46:23.898Z,80.10
2023-11-24T21:51:26.112Z,80.33
2023-11-24T21:56:29.497Z,80.55
2023-11-24T22:01:33.209Z,80.83
2023-11-24T22:06:40.969Z,80.78
2023-11-24T22:11:42.447Z,80.77
2023-11-24T22:16:44.739Z,80.72
2023-11-24T22:21:46.540Z,80.68
2023-11-24T22:26:47.868Z,80.65
2023-11-24T22:31:49.358Z,80.37
2023-11-24T22:36:51.430Z,80.34
2023-11-24T22:41:53.089Z,80.22
2023-11-24T22:46:54.649Z,80.22
2023-11-24T22:51:56.668Z,80.16
2023-11-24T22:56:57.921Z,80.23
2023-11-24T23:02:00.113Z,80.31
2023-11-24T23:07:01.797Z,80.55
2023-11-24T23:12:03.328Z,80.61
2023-11-24T23:17:06.335Z,80.35
2023-11-24T23:22:09.351Z,80.12
2023-11-24T23:27:13.671Z,80.04
2023-11-24T23:32:16.826Z,79.85
2023-11-24T23:37:18.754Z,79.74
2023-11-24T23:42:20.125Z,79.65
2023-11-24T23:47:22.241Z,79.59
2023-11-24T23:52:23.704Z,79.44
2023-11-24T23:57:25.731Z,79.29
